TimeCDT,TemperatureF,Dew PointF,Humidity,Sea Level PressureIn,VisibilityMPH,Wind Direction,Wind SpeedMPH,Gust SpeedMPH,PrecipitationIn,Events,Conditions,WindDirDegrees,DateUTC
12:54 AM,75.0,64.9,71,29.86,10.0,WNW,6.9,-,N/A,,Clear,300,2013-06-27 05:54:00
1:54 AM,73.9,64.9,73,29.86,10.0,WNW,5.8,-,N/A,,Clear,290,2013-06-27 06:54:00
2:54 AM,73.0,64.9,76,29.86,10.0,WNW,6.9,-,N/A,,Clear,290,2013-06-27 07:54:00
3:54 AM,73.0,64.9,76,29.87,10.0,WNW,5.8,-,N/A,,Clear,300,2013-06-27 08:54:00
4:54 AM,70.0,64.0,81,29.88,10.0,NW,4.6,-,N/A,,Clear,320,2013-06-27 09:54:00
5:54 AM,70.0,64.0,81,29.90,10.0,West,6.9,-,N/A,,Clear,260,2013-06-27 10:54:00
6:54 AM,73.9,66.0,76,29.90,10.0,West,5.8,-,N/A,,Clear,280,2013-06-27 11:54:00
7:54 AM,79.0,66.9,66,29.91,10.0,NW,4.6,-,N/A,,Clear,310,2013-06-27 12:54:00
8:54 AM,82.0,68.0,62,29.92,10.0,NW,4.6,-,N/A,,Clear,320,2013-06-27 13:54:00
9:54 AM,86.0,66.9,53,29.92,10.0,NW,3.5,-,N/A,,Clear,310,2013-06-27 14:54:00
10:54 AM,87.1,69.1,55,29.92,10.0,Calm,Calm,-,N/A,,Clear,0,2013-06-27 15:54:00
11:54 AM,90.0,66.9,46,29.91,10.0,WNW,6.9,-,N/A,,Clear,290,2013-06-27 16:54:00
12:54 PM,89.1,69.1,52,29.92,10.0,West,8.1,-,N/A,,Clear,280,2013-06-27 17:54:00
1:54 PM,87.1,70.0,57,29.95,10.0,WNW,12.7,-,N/A,,Clear,300,2013-06-27 18:54:00
2:54 PM,86.0,69.1,57,29.94,10.0,NW,16.1,-,N/A,,Clear,310,2013-06-27 19:54:00
3:54 PM,84.0,69.1,61,29.90,10.0,North,8.1,-,N/A,,Clear,360,2013-06-27 20:54:00
4:54 PM,84.0,69.1,61,29.89,10.0,North,4.6,-,N/A,,Mostly Cloudy,10,2013-06-27 21:54:00
5:54 PM,82.0,71.1,69,29.85,10.0,Calm,Calm,-,N/A,,Clear,0,2013-06-27 22:54:00
6:54 PM,82.0,72.0,71,29.84,10.0,West,8.1,-,N/A,,Clear,280,2013-06-27 23:54:00
7:54 PM,80.1,72.0,76,29.83,10.0,NW,5.8,-,N/A,,Clear,310,2013-06-28 00:54:00
8:54 PM,77.0,71.1,82,29.84,10.0,NW,5.8,-,N/A,,Clear,310,2013-06-28 01:54:00
9:54 PM,75.0,72.0,90,29.88,10.0,West,6.9,-,N/A,,Clear,270,2013-06-28 02:54:00
10:54 PM,75.9,71.1,85,29.89,10.0,West,5.8,-,N/A,,Clear,280,2013-06-28 03:54:00
11:54 PM,75.0,71.1,87,29.87,10.0,Calm,Calm,-,N/A,,Partly Cloudy,0,2013-06-28 04:54:00